createdAt,value
2023-05-18T00:00:35.481Z,13.43
2023-05-18T00:03:04.298Z,13.45
2023-05-18T00:05:34.510Z,12.99
2023-05-18T00:08:03.112Z,12.89
2023-05-18T00:10:31.746Z,13.29
2023-05-18T00:13:00.159Z,13.10
2023-05-18T00:15:28.790Z,13.37
2023-05-18T00:17:57.503Z,13.46
2023-05-18T00:20:26.814Z,13.39
2023-05-18T00:22:56.975Z,13.26
2023-05-18T00:25:25.369Z,12.96
2023-05-18T00:27:53.758Z,13.01
2023-05-18T00:30:24.148Z,13.31
2023-05-18T00:32:52.591Z,13.41
2023-05-18T00:35:21.103Z,13.44
2023-05-18T00:37:49.428Z,13.38
2023-05-18T00:40:19.530Z,13.44
2023-05-18T00:42:47.839Z,13.47
2023-05-18T00:45:16.368Z,13.50
2023-05-18T00:47:44.779Z,13.22
2023-05-18T00:50:13.421Z,13.09
2023-05-18T00:52:42.241Z,12.83
2023-05-18T00:55:13.414Z,12.80
2023-05-18T00:57:44.664Z,13.00
2023-05-18T01:00:14.375Z,13.05
2023-05-18T01:02:46.024Z,13.18
2023-05-18T01:05:14.875Z,12.93
2023-05-18T01:07:43.966Z,12.39
2023-05-18T01:10:13.520Z,13.14
2023-05-18T01:12:49.491Z,13.28
2023-05-18T01:15:20.666Z,13.31
2023-05-18T01:18:05.265Z,13.23
2023-05-18T01:20:39.223Z,13.06
2023-05-18T01:23:42.238Z,12.87
2023-05-18T01:26:17.265Z,12.90
2023-05-18T01:28:47.604Z,12.63
2023-05-18T01:31:16.627Z,12.49
2023-05-18T01:33:45.284Z,12.03
2023-05-18T01:36:13.789Z,12.32
2023-05-18T01:38:44.375Z,12.32
2023-05-18T01:41:21.709Z,12.92
2023-05-18T01:43:57.368Z,12.94
2023-05-18T01:46:38.073Z,13.07
2023-05-18T01:49:15.411Z,13.18
2023-05-18T01:51:47.291Z,13.18
2023-05-18T01:54:23.381Z,13.38
2023-05-18T01:56:56.631Z,13.22
2023-05-18T01:59:25.242Z,13.09
2023-05-18T02:01:59.462Z,12.99
2023-05-18T02:04:28.397Z,13.04
2023-05-18T02:06:56.836Z,13.06
2023-05-18T02:09:25.140Z,12.84
2023-05-18T02:11:55.002Z,12.71
2023-05-18T02:14:23.307Z,12.98
2023-05-18T02:16:53.252Z,13.33
2023-05-18T02:19:22.087Z,13.25
2023-05-18T02:21:50.429Z,13.46
2023-05-18T02:24:19.057Z,12.79
2023-05-18T02:26:47.353Z,12.84
2023-05-18T02:29:17.063Z,12.60
2023-05-18T02:31:45.594Z,12.68
2023-05-18T02:34:15.614Z,12.65
2023-05-18T02:36:43.932Z,13.02
2023-05-18T02:39:12.533Z,13.44
2023-05-18T02:41:40.790Z,13.41
2023-05-18T02:44:09.087Z,13.57
2023-05-18T02:46:38.840Z,13.47
2023-05-18T02:49:07.232Z,13.53
2023-05-18T02:51:36.118Z,13.79
2023-05-18T02:54:04.486Z,13.82
2023-05-18T02:56:32.975Z,13.69
2023-05-18T02:59:01.382Z,12.72
2023-05-18T03:01:29.859Z,12.98
2023-05-18T03:03:59.756Z,13.11
2023-05-18T03:06:30.524Z,12.84
2023-05-18T03:08:59.051Z,12.31
2023-05-18T03:11:27.640Z,12.19
2023-05-18T03:13:56.049Z,12.34
2023-05-18T03:16:28.577Z,12.34
2023-05-18T03:18:59.282Z,12.52
2023-05-18T03:21:36.161Z,12.47
2023-05-18T03:24:05.127Z,12.77
2023-05-18T03:26:33.426Z,13.11
2023-05-18T03:29:02.281Z,13.05
2023-05-18T03:31:30.827Z,12.95
2023-05-18T03:33:59.180Z,12.47
2023-05-18T03:36:29.420Z,12.54
2023-05-18T03:38:57.711Z,12.65
2023-05-18T03:41:26.196Z,12.80
2023-05-18T03:43:54.533Z,12.99
2023-05-18T03:46:22.970Z,12.75
2023-05-18T03:48:51.547Z,12.82
2023-05-18T03:51:19.840Z,12.65
2023-05-18T03:53:52.456Z,12.57
2023-05-18T03:56:21.243Z,12.67
2023-05-18T03:58:51.538Z,12.92
2023-05-18T04:01:20.008Z,12.84
2023-05-18T04:03:48.398Z,12.95
2023-05-18T04:06:16.789Z,12.92
2023-05-18T04:08:46.400Z,12.88
2023-05-18T04:11:16.210Z,12.89
2023-05-18T04:13:44.589Z,13.02
2023-05-18T04:16:13.784Z,13.14
2023-05-18T04:18:43.243Z,13.20
2023-05-18T04:21:12.008Z,13.11
2023-05-18T04:23:40.969Z,13.30
2023-05-18T04:26:09.395Z,13.20
2023-05-18T04:28:39.209Z,13.27
2023-05-18T04:31:07.474Z,13.50
2023-05-18T04:33:35.893Z,12.88
2023-05-18T04:36:05.143Z,12.37
2023-05-18T04:38:35.620Z,12.08
2023-05-18T04:41:06.780Z,12.14
2023-05-18T04:43:36.713Z,12.41
2023-05-18T04:46:07.538Z,12.25
2023-05-18T04:48:36.498Z,12.03
2023-05-18T04:51:06.349Z,12.22
2023-05-18T04:53:34.785Z,12.44
2023-05-18T04:56:03.453Z,12.58
2023-05-18T04:58:31.927Z,12.62
2023-05-18T05:01:00.289Z,13.06
2023-05-18T05:03:30.359Z,12.96
2023-05-18T05:05:58.803Z,13.18
2023-05-18T05:08:27.137Z,13.36
2023-05-18T05:10:55.617Z,13.60
2023-05-18T05:13:23.988Z,13.38
2023-05-18T05:15:52.316Z,13.91
2023-05-18T05:18:20.739Z,13.90
2023-05-18T05:20:51.746Z,14.40
2023-05-18T05:23:20.167Z,13.71
2023-05-18T05:25:48.488Z,14.47
2023-05-18T05:28:16.900Z,14.46
2023-05-18T05:30:45.192Z,14.50
2023-05-18T05:33:13.704Z,14.48
2023-05-18T05:35:42.170Z,14.62
2023-05-18T05:38:12.044Z,14.97
2023-05-18T05:40:40.443Z,14.89
2023-05-18T05:43:08.845Z,15.07
2023-05-18T05:45:37.246Z,14.70
2023-05-18T05:48:05.865Z,14.40
2023-05-18T05:50:34.343Z,14.33
2023-05-18T05:53:02.898Z,14.80
2023-05-18T05:55:32.920Z,14.86
2023-05-18T05:58:01.325Z,15.18
2023-05-18T06:00:29.723Z,14.91
2023-05-18T06:02:59.013Z,15.40
2023-05-18T06:05:27.484Z,14.87
2023-05-18T06:07:56.465Z,14.88
2023-05-18T06:10:24.990Z,15.10
2023-05-18T06:12:54.740Z,15.45
2023-05-18T06:15:23.185Z,16.05
2023-05-18T06:17:51.630Z,16.59
2023-05-18T06:20:20.117Z,16.71
2023-05-18T06:22:48.737Z,17.18
2023-05-18T06:25:17.787Z,18.00
2023-05-18T06:27:47.375Z,18.61
2023-05-18T06:30:17.438Z,18.10
2023-05-18T06:32:45.899Z,18.09
2023-05-18T06:35:14.269Z,18.06
2023-05-18T06:37:43.453Z,17.91
2023-05-18T06:40:13.237Z,17.39
2023-05-18T06:42:41.553Z,17.18
2023-05-18T06:45:10.397Z,16.80
2023-05-18T06:47:40.277Z,17.23
2023-05-18T06:50:09.353Z,18.29
2023-05-18T06:52:37.595Z,18.63
2023-05-18T06:55:07.761Z,18.29
2023-05-18T06:57:36.076Z,19.07
2023-05-18T07:00:07.492Z,19.33
2023-05-18T07:02:36.185Z,20.10
2023-05-18T07:05:09.362Z,20.52
2023-05-18T07:07:37.960Z,19.86
2023-05-18T07:10:07.696Z,20.12
2023-05-18T07:12:36.054Z,20.56
2023-05-18T07:15:04.532Z,21.05
2023-05-18T07:17:32.925Z,20.84
2023-05-18T07:20:01.257Z,21.72
2023-05-18T07:22:31.002Z,21.47
2023-05-18T07:25:00.887Z,21.80
2023-05-18T07:27:29.392Z,21.75
2023-05-18T07:29:57.707Z,21.91
2023-05-18T07:32:26.036Z,21.82
2023-05-18T07:34:54.259Z,21.45
2023-05-18T07:37:23.773Z,21.71
2023-05-18T07:39:53.540Z,22.34
2023-05-18T07:42:21.863Z,22.73
2023-05-18T07:44:50.153Z,23.30
2023-05-18T07:47:18.435Z,23.50
2023-05-18T07:49:46.718Z,23.66
2023-05-18T07:52:15.211Z,23.78
2023-05-18T07:54:43.666Z,23.00
2023-05-18T07:57:13.388Z,23.64
2023-05-18T07:59:41.774Z,23.45
2023-05-18T08:02:10.101Z,23.15
2023-05-18T08:04:38.509Z,22.58
2023-05-18T08:07:06.870Z,23.41
2023-05-18T08:09:35.228Z,23.36
2023-05-18T08:12:03.649Z,22.33
2023-05-18T08:14:33.480Z,21.74
2023-05-18T08:17:01.843Z,22.30
2023-05-18T08:19:30.285Z,22.88
2023-05-18T08:21:58.611Z,22.68
2023-05-18T08:24:27.013Z,22.63
2023-05-18T08:26:55.279Z,22.63
2023-05-18T08:29:23.559Z,22.51
2023-05-18T08:31:53.519Z,22.25
2023-05-18T08:34:22.147Z,22.51
2023-05-18T08:36:50.532Z,22.18
2023-05-18T08:39:18.846Z,20.88
2023-05-18T08:41:56.615Z,20.82
2023-05-18T08:44:31.011Z,21.26
2023-05-18T08:47:01.756Z,21.64
2023-05-18T08:49:32.614Z,20.96
2023-05-18T08:52:05.103Z,20.06
2023-05-18T08:54:34.871Z,20.00
2023-05-18T08:57:05.316Z,20.01
2023-05-18T08:59:38.053Z,20.64
2023-05-18T09:02:07.959Z,21.00
2023-05-18T09:04:37.369Z,20.41
2023-05-18T09:07:07.435Z,20.95
2023-05-18T09:09:37.165Z,21.16
2023-05-18T09:12:07.286Z,21.08
2023-05-18T09:14:35.716Z,21.71
2023-05-18T09:17:04.074Z,22.05
2023-05-18T09:19:33.885Z,22.00
2023-05-18T09:22:02.382Z,22.41
2023-05-18T09:24:31.147Z,22.62
2023-05-18T09:26:59.498Z,22.42
2023-05-18T09:29:27.922Z,22.11
2023-05-18T09:31:56.756Z,22.92
2023-05-18T09:34:25.086Z,23.31
2023-05-18T09:36:57.142Z,23.13
2023-05-18T09:39:25.518Z,22.97
2023-05-18T09:41:57.287Z,22.65
2023-05-18T09:44:33.066Z,22.35
2023-05-18T09:47:01.718Z,21.80
2023-05-18T09:49:31.035Z,20.90
2023-05-18T09:52:01.288Z,20.92
2023-05-18T09:54:30.074Z,20.84
2023-05-18T09:57:10.457Z,21.55
2023-05-18T09:59:39.986Z,21.52
2023-05-18T10:02:09.083Z,21.92
2023-05-18T10:04:39.020Z,21.22
2023-05-18T10:07:15.666Z,20.92
2023-05-18T10:09:46.665Z,21.46
2023-05-18T10:12:16.560Z,21.46
2023-05-18T10:14:46.047Z,21.11
2023-05-18T10:17:16.267Z,21.93
2023-05-18T10:19:46.470Z,22.64
2023-05-18T10:22:18.590Z,22.97
2023-05-18T10:24:52.525Z,22.13
2023-05-18T10:27:25.762Z,22.75
2023-05-18T10:29:55.269Z,23.48
2023-05-18T10:32:25.555Z,23.38
2023-05-18T10:34:54.914Z,23.73
2023-05-18T10:37:26.740Z,24.35
2023-05-18T10:39:57.367Z,24.01
2023-05-18T10:42:27.512Z,23.82
2023-05-18T10:44:57.884Z,24.46
2023-05-18T10:47:26.675Z,24.49
2023-05-18T10:49:56.202Z,24.49
2023-05-18T10:52:31.942Z,24.26
2023-05-18T10:55:01.185Z,24.46
2023-05-18T10:57:35.921Z,25.01
2023-05-18T11:00:07.847Z,24.78
2023-05-18T11:02:36.496Z,25.00
2023-05-18T11:05:07.479Z,25.47
2023-05-18T11:07:37.875Z,24.99
2023-05-18T11:10:11.644Z,24.75
2023-05-18T11:12:41.815Z,24.45
2023-05-18T11:15:11.031Z,24.46
2023-05-18T11:17:39.501Z,24.55
2023-05-18T11:20:15.611Z,24.60
2023-05-18T11:22:50.309Z,24.22
2023-05-18T11:25:40.657Z,24.57
2023-05-18T11:28:10.898Z,23.93
2023-05-18T11:30:51.212Z,22.57
2023-05-18T11:33:24.919Z,22.75
2023-05-18T11:35:57.570Z,22.49
2023-05-18T11:38:43.739Z,21.78
2023-05-18T11:41:29.283Z,20.90
2023-05-18T11:44:22.331Z,20.66
2023-05-18T11:46:56.485Z,20.94
2023-05-18T11:49:26.687Z,20.43
2023-05-18T11:52:18.480Z,21.22
2023-05-18T11:54:52.356Z,20.42
2023-05-18T11:57:22.249Z,20.11
2023-05-18T11:59:57.179Z,19.39
2023-05-18T12:02:27.472Z,19.30
2023-05-18T12:04:58.558Z,19.09
2023-05-18T12:07:28.868Z,19.35
2023-05-18T12:10:01.908Z,19.80
2023-05-18T12:12:30.526Z,19.87
2023-05-18T12:15:00.063Z,19.87
2023-05-18T12:17:40.466Z,19.04
2023-05-18T12:20:28.549Z,18.88
2023-05-18T12:22:57.471Z,18.78
2023-05-18T12:25:28.345Z,17.71
2023-05-18T12:27:57.974Z,17.96
2023-05-18T12:30:35.298Z,17.94
2023-05-18T12:33:16.941Z,18.03
2023-05-18T12:35:45.333Z,18.02
2023-05-18T12:38:13.666Z,18.15
2023-05-18T12:40:48.818Z,18.03
2023-05-18T12:43:17.797Z,18.13
2023-05-18T12:45:46.818Z,17.65
2023-05-18T12:48:15.649Z,17.42
2023-05-18T12:50:48.113Z,17.73
2023-05-18T12:53:16.658Z,17.52
2023-05-18T12:55:46.370Z,17.60
2023-05-18T12:58:17.112Z,17.63
2023-05-18T13:00:47.261Z,17.10
2023-05-18T13:03:17.496Z,17.47
2023-05-18T13:05:47.120Z,16.92
2023-05-18T13:08:18.196Z,17.60
2023-05-18T13:10:55.219Z,16.19
2023-05-18T13:13:29.927Z,17.44
2023-05-18T13:15:59.816Z,17.13
2023-05-18T13:18:29.344Z,17.00
2023-05-18T13:20:58.813Z,16.68
2023-05-18T13:23:32.588Z,17.08
2023-05-18T13:26:02.424Z,17.42
2023-05-18T13:28:31.379Z,16.91
2023-05-18T13:30:59.631Z,17.06
2023-05-18T13:33:27.952Z,17.12
2023-05-18T13:35:56.364Z,17.51
2023-05-18T13:38:24.732Z,17.65
2023-05-18T13:40:53.118Z,17.11
2023-05-18T13:43:22.807Z,17.18
2023-05-18T13:45:51.153Z,17.22
2023-05-18T13:48:19.735Z,16.88
2023-05-18T13:50:48.117Z,16.86
2023-05-18T13:53:16.518Z,16.66
2023-05-18T13:55:44.782Z,16.82
2023-05-18T13:58:13.073Z,16.35
2023-05-18T14:00:42.812Z,16.83
2023-05-18T14:03:11.532Z,16.54
2023-05-18T14:05:40.772Z,17.11
2023-05-18T14:08:09.129Z,16.93
2023-05-18T14:10:37.370Z,16.81
2023-05-18T14:13:06.085Z,17.14
2023-05-18T14:15:34.363Z,16.88
2023-05-18T14:18:04.216Z,16.97
2023-05-18T14:20:33.037Z,16.94
2023-05-18T14:23:03.664Z,16.79
2023-05-18T14:25:32.839Z,16.73
2023-05-18T14:28:01.176Z,16.50
2023-05-18T14:30:29.660Z,16.64
2023-05-18T14:32:58.386Z,16.68
2023-05-18T14:35:28.193Z,16.47
2023-05-18T14:37:56.661Z,16.58
2023-05-18T14:40:24.949Z,16.44
2023-05-18T14:42:53.912Z,16.54
2023-05-18T14:45:22.457Z,16.59
2023-05-18T14:47:50.802Z,16.79
2023-05-18T14:50:19.281Z,16.70
2023-05-18T14:52:48.951Z,16.60
2023-05-18T14:55:17.441Z,16.72
2023-05-18T14:57:46.066Z,16.84
2023-05-18T15:00:15.517Z,16.65
2023-05-18T15:02:43.890Z,16.72
2023-05-18T15:05:12.559Z,16.71
2023-05-18T15:07:40.899Z,16.92
2023-05-18T15:10:11.659Z,16.86
2023-05-18T15:12:40.083Z,16.97
2023-05-18T15:15:09.653Z,16.85
2023-05-18T15:17:38.089Z,16.82
2023-05-18T15:20:07.744Z,16.92
2023-05-18T15:22:36.224Z,17.06
2023-05-18T15:25:06.013Z,17.11
2023-05-18T15:27:36.250Z,17.06
2023-05-18T15:30:11.277Z,17.10
2023-05-18T15:32:39.749Z,17.36
2023-05-18T15:35:09.139Z,17.05
2023-05-18T15:37:37.639Z,17.42
2023-05-18T15:40:06.645Z,17.08
2023-05-18T15:42:36.413Z,17.20
2023-05-18T15:45:05.214Z,17.38
2023-05-18T15:47:33.650Z,17.23
2023-05-18T15:50:02.018Z,17.32
2023-05-18T15:52:30.430Z,17.15
2023-05-18T15:54:58.884Z,17.21
2023-05-18T15:57:27.308Z,17.20
2023-05-18T15:59:57.055Z,16.93
2023-05-18T16:02:26.021Z,16.87
2023-05-18T16:04:54.457Z,16.92
2023-05-18T16:07:22.793Z,16.93
2023-05-18T16:09:51.199Z,16.71
2023-05-18T16:12:19.608Z,16.62
2023-05-18T16:14:47.989Z,16.73
2023-05-18T16:17:17.754Z,16.71
2023-05-18T16:19:46.387Z,16.49
2023-05-18T16:22:14.718Z,16.36
2023-05-18T16:24:43.477Z,16.14
2023-05-18T16:27:11.810Z,16.10
2023-05-18T16:29:41.554Z,16.10
2023-05-18T16:32:09.856Z,16.21
2023-05-18T16:34:39.581Z,16.32
2023-05-18T16:37:07.875Z,15.99
2023-05-18T16:39:36.193Z,16.34
2023-05-18T16:42:04.613Z,15.98
2023-05-18T16:44:33.124Z,16.39
2023-05-18T16:47:01.578Z,16.07
2023-05-18T16:49:29.867Z,16.32
2023-05-18T16:51:59.544Z,16.32
2023-05-18T16:54:27.882Z,16.39
2023-05-18T16:56:56.652Z,16.41
2023-05-18T16:59:25.143Z,16.36
2023-05-18T17:01:53.617Z,16.59
2023-05-18T17:04:22.148Z,16.41
2023-05-18T17:06:50.447Z,16.50
2023-05-18T17:09:21.116Z,16.29
2023-05-18T17:11:49.497Z,16.12
2023-05-18T17:14:18.626Z,16.19
2023-05-18T17:16:47.447Z,16.38
2023-05-18T17:19:15.774Z,16.16
2023-05-18T17:21:44.082Z,16.44
2023-05-18T17:24:12.361Z,16.38
2023-05-18T17:26:42.068Z,16.11
2023-05-18T17:29:10.434Z,16.14
2023-05-18T17:31:38.822Z,16.06
2023-05-18T17:34:07.193Z,15.88
2023-05-18T17:36:35.769Z,15.76
2023-05-18T17:39:04.608Z,15.41
2023-05-18T17:41:33.338Z,15.86
2023-05-18T17:44:03.207Z,15.83
2023-05-18T17:46:31.888Z,15.75
2023-05-18T17:49:02.191Z,15.60
2023-05-18T17:51:30.496Z,15.87
2023-05-18T17:53:58.789Z,15.89
2023-05-18T17:56:28.316Z,15.76
2023-05-18T17:58:58.694Z,15.88
2023-05-18T18:01:29.087Z,15.79
2023-05-18T18:03:57.730Z,15.73
2023-05-18T18:06:26.801Z,16.04
2023-05-18T18:08:57.385Z,16.20
2023-05-18T18:11:27.086Z,15.88
2023-05-18T18:13:55.653Z,15.73
2023-05-18T18:16:24.499Z,15.93
2023-05-18T18:18:54.265Z,15.70
2023-05-18T18:21:22.651Z,15.42
2023-05-18T18:23:51.032Z,15.70
2023-05-18T18:26:19.446Z,15.46
2023-05-18T18:28:47.771Z,15.74
2023-05-18T18:31:16.390Z,15.18
2023-05-18T18:33:47.744Z,15.50
2023-05-18T18:36:18.034Z,15.68
2023-05-18T18:38:46.379Z,15.40
2023-05-18T18:41:17.405Z,15.43
2023-05-18T18:43:45.906Z,15.62
2023-05-18T18:46:14.400Z,15.55
2023-05-18T18:48:42.886Z,15.46
2023-05-18T18:51:11.234Z,15.68
2023-05-18T18:53:41.164Z,15.55
2023-05-18T18:56:09.553Z,15.72
2023-05-18T18:58:37.971Z,15.94
2023-05-18T19:01:06.244Z,16.03
2023-05-18T19:03:35.434Z,16.06
2023-05-18T19:06:03.911Z,16.09
2023-05-18T19:08:32.815Z,16.15
2023-05-18T19:11:02.540Z,16.18
2023-05-18T19:13:30.817Z,16.15
2023-05-18T19:15:59.580Z,16.15
2023-05-18T19:18:27.976Z,16.19
2023-05-18T19:20:56.319Z,16.19
2023-05-18T19:23:24.678Z,16.19
2023-05-18T19:25:54.858Z,16.18
2023-05-18T19:28:24.769Z,16.15
2023-05-18T19:30:53.751Z,16.03
2023-05-18T19:33:22.046Z,15.94
2023-05-18T19:35:51.765Z,15.95
2023-05-18T19:38:20.041Z,15.83
2023-05-18T19:40:48.289Z,15.89
2023-05-18T19:43:17.259Z,15.76
2023-05-18T19:45:47.665Z,15.35
2023-05-18T19:48:17.632Z,15.23
2023-05-18T19:50:45.984Z,15.36
2023-05-18T19:53:14.316Z,15.35
2023-05-18T19:55:42.802Z,15.20
2023-05-18T19:58:11.217Z,14.86
2023-05-18T20:00:41.441Z,14.68
2023-05-18T20:03:11.222Z,14.53
2023-05-18T20:05:39.709Z,14.38
2023-05-18T20:08:10.169Z,14.31
2023-05-18T20:10:38.503Z,14.61
2023-05-18T20:13:06.987Z,14.75
2023-05-18T20:15:37.296Z,14.51
2023-05-18T20:18:06.942Z,14.61
2023-05-18T20:20:36.897Z,14.73
2023-05-18T20:23:06.922Z,14.72
2023-05-18T20:25:36.540Z,14.76
2023-05-18T20:28:07.507Z,14.70
2023-05-18T20:30:36.512Z,14.59
2023-05-18T20:33:05.419Z,14.90
2023-05-18T20:35:34.522Z,14.92
2023-05-18T20:38:04.797Z,14.93
2023-05-18T20:40:33.719Z,15.11
2023-05-18T20:43:02.452Z,15.02
2023-05-18T20:45:31.506Z,15.01
2023-05-18T20:48:00.497Z,15.20
2023-05-18T20:50:29.289Z,15.45
2023-05-18T20:52:57.734Z,15.36
2023-05-18T20:55:27.713Z,15.55
2023-05-18T20:57:56.060Z,15.74
2023-05-18T21:00:24.536Z,15.90
2023-05-18T21:02:53.787Z,16.00
2023-05-18T21:05:23.439Z,16.06
2023-05-18T21:07:53.707Z,15.21
2023-05-18T21:10:22.087Z,15.06
2023-05-18T21:12:51.832Z,15.05
2023-05-18T21:15:20.099Z,15.11
2023-05-18T21:17:48.450Z,14.82
2023-05-18T21:20:16.739Z,14.78
2023-05-18T21:22:44.998Z,14.52
2023-05-18T21:25:13.335Z,14.57
2023-05-18T21:27:41.795Z,14.69
2023-05-18T21:30:13.610Z,14.54
2023-05-18T21:32:43.724Z,14.85
2023-05-18T21:35:12.062Z,14.68
2023-05-18T21:37:40.392Z,14.71
2023-05-18T21:40:09.947Z,14.74
2023-05-18T21:42:44.982Z,14.47
2023-05-18T21:45:15.032Z,14.55
2023-05-18T21:47:43.427Z,14.69
2023-05-18T21:50:12.469Z,14.70
2023-05-18T21:52:40.733Z,14.84
2023-05-18T21:55:10.336Z,14.46
2023-05-18T21:57:38.734Z,14.51
2023-05-18T22:00:08.782Z,14.51
2023-05-18T22:02:38.739Z,14.67
2023-05-18T22:05:08.934Z,15.08
2023-05-18T22:07:37.279Z,15.02
2023-05-18T22:10:06.374Z,14.89
2023-05-18T22:12:34.712Z,14.58
2023-05-18T22:15:03.082Z,14.55
2023-05-18T22:17:31.571Z,14.01
2023-05-18T22:20:01.290Z,14.35
2023-05-18T22:22:30.925Z,14.17
2023-05-18T22:24:59.396Z,14.02
2023-05-18T22:27:27.867Z,13.94
2023-05-18T22:29:56.278Z,13.77
2023-05-18T22:32:24.732Z,13.86
2023-05-18T22:34:53.754Z,14.10
2023-05-18T22:37:23.433Z,13.87
2023-05-18T22:39:51.765Z,13.80
2023-05-18T22:42:20.041Z,13.57
2023-05-18T22:44:48.281Z,13.76
2023-05-18T22:47:20.193Z,13.62
2023-05-18T22:49:49.413Z,13.50
2023-05-18T22:52:18.013Z,13.32
2023-05-18T22:54:47.936Z,13.94
2023-05-18T22:57:16.219Z,13.90
2023-05-18T22:59:44.487Z,13.90
2023-05-18T23:02:12.999Z,13.96
2023-05-18T23:04:41.387Z,13.86
2023-05-18T23:07:09.786Z,13.65
2023-05-18T23:09:39.949Z,13.71
2023-05-18T23:12:11.782Z,13.96
2023-05-18T23:14:40.103Z,14.12
2023-05-18T23:17:08.841Z,14.12
2023-05-18T23:19:37.221Z,14.35
2023-05-18T23:22:05.826Z,14.12
2023-05-18T23:24:34.226Z,14.09
2023-05-18T23:27:02.717Z,14.25
2023-05-18T23:29:32.517Z,14.14
2023-05-18T23:32:00.987Z,14.19
2023-05-18T23:34:31.205Z,14.42
2023-05-18T23:37:03.924Z,14.68
2023-05-18T23:39:33.102Z,14.82
2023-05-18T23:42:02.282Z,15.07
2023-05-18T23:44:32.738Z,14.67
2023-05-18T23:47:01.855Z,14.26
2023-05-18T23:49:31.171Z,14.00
2023-05-18T23:52:03.549Z,13.98
2023-05-18T23:54:32.308Z,13.99
2023-05-18T23:57:01.125Z,13.87
2023-05-18T23:59:30.004Z,13.88
